Página principal
METAR-TAF:

METAR-TAF

Aeroportos :

Harbin, China

Aeroporto Internacional Harbin Taiping

latitude: 45-45N, longitude: 126-46E, altura: 143 m

Observação actual do tempo

O boletim foi feito há 53 minutos, às 22:00 UTC
Vento 8 kt de sudoeste
Temperatura -10°C
Humidade 85%
Pressão 1012 hPa
Visibilidade: 8000 m
Nuvens fragmentadasa uma altura de 4000 ft
neve fraca

METAR: ZYHB 212200Z 23004MPS 8000 -SN BKN040 M10/M12 Q1012 NOSIG

Hora: 06:53 (22:53 UTC)

Previsão

O boletim foi feito há 7 horas e 50 minutos, às 15:03 UTC
Previsão válida de 21 às 18 UTC a 22 às 18 UTC
Vento 14 kt de oes-noroeste com rajadas de 27 kt
Visibilidade: 4000 m
Nuvens dispersasa uma altura de 3000 ft
neblina
Temporariamente
de 21 às 18 UTC a 21 às 24 UTC
Visibilidade: 1200 m
neve fraca

TAF: ZYHB 211503Z 2118/2218 29007G14MPS 4000 BR SCT030 TXM06/06Z TNM13/22Z TEMPO 2118/2124 1200 -SN

Observações e previsões do tempo de mais de 4000 aeroportos (mensagens METAR e TAF).

As estações disponíveis são os pontos amarelos e vermelhos sobre o mapa.

Mova o rato sobre o mapa para ver o nome da estação.

Depois clique no ponto para visualizar as observações e previsões meteorológicas.

Para alterar o mapa : clique nos botões verdes com uma cruz preta para aumentar o zoom; no botão verde com uma pitada de zoom; ou nas setas verdes para mapas adjacentes.


METAR-TAF: